createdAt,value
2023-02-02T00:01:30.764Z,96428.56
2023-02-02T00:03:58.104Z,96416.06
2023-02-02T00:06:27.411Z,96415.19
2023-02-02T00:08:56.958Z,96398.22
2023-02-02T00:11:24.633Z,96402.69
2023-02-02T00:13:51.289Z,96396.25
2023-02-02T00:16:27.244Z,96404.31
2023-02-02T00:18:59.457Z,96400.13
2023-02-02T00:21:26.435Z,96400.00
2023-02-02T00:23:53.404Z,96365.50
2023-02-02T00:26:21.028Z,96388.53
2023-02-02T00:28:48.051Z,96379.75
2023-02-02T00:31:15.058Z,96345.97
2023-02-02T00:33:46.115Z,96388.09
2023-02-02T00:36:12.772Z,96364.56
2023-02-02T00:38:39.453Z,96383.34
2023-02-02T00:41:07.361Z,96375.16
2023-02-02T00:43:34.318Z,96393.75
2023-02-02T00:46:01.552Z,96375.16
2023-02-02T00:48:28.313Z,96386.75
2023-02-02T00:50:55.279Z,96376.66
2023-02-02T00:53:22.060Z,96371.72
2023-02-02T00:55:48.865Z,96386.28
2023-02-02T00:58:15.673Z,96388.38
2023-02-02T01:00:42.413Z,96381.41
2023-02-02T01:03:10.039Z,96381.09
2023-02-02T01:05:36.967Z,96385.25
2023-02-02T01:08:03.683Z,96379.47
2023-02-02T01:10:30.413Z,96383.00
2023-02-02T01:12:57.116Z,96374.25
2023-02-02T01:15:24.004Z,96378.97
2023-02-02T01:17:50.867Z,96365.00
2023-02-02T01:20:20.233Z,96368.13
2023-02-02T01:22:47.826Z,96399.78
2023-02-02T01:25:14.534Z,96364.41
2023-02-02T01:27:43.197Z,96365.75
2023-02-02T01:30:10.936Z,96366.34
2023-02-02T01:32:37.627Z,96359.22
2023-02-02T01:35:04.522Z,96356.97
2023-02-02T01:37:31.232Z,96378.56
2023-02-02T01:39:57.882Z,96362.63
2023-02-02T01:42:25.620Z,96345.38
2023-02-02T01:45:16.428Z,96342.25
2023-02-02T01:47:49.082Z,96348.06
2023-02-02T01:50:17.595Z,96356.25
2023-02-02T01:52:48.484Z,96344.34
2023-02-02T01:55:18.900Z,96359.22
2023-02-02T01:57:59.633Z,96350.16
2023-02-02T02:00:27.871Z,96331.25
2023-02-02T02:02:58.890Z,96343.19
2023-02-02T02:05:45.176Z,96363.09
2023-02-02T02:08:19.772Z,96357.31
2023-02-02T02:10:46.715Z,96352.53
2023-02-02T02:13:14.542Z,96357.59
2023-02-02T02:16:07.766Z,96351.63
2023-02-02T02:18:50.580Z,96318.19
2023-02-02T02:21:58.521Z,96348.50
2023-02-02T02:25:19.063Z,96355.94
2023-02-02T02:28:15.245Z,96343.31
2023-02-02T02:31:21.948Z,96358.78
2023-02-02T02:34:14.825Z,96361.31
2023-02-02T02:37:02.355Z,96362.22
2023-02-02T02:40:02.786Z,96366.22
2023-02-02T02:42:34.078Z,96353.88
2023-02-02T02:45:03.138Z,96329.47
2023-02-02T02:47:31.446Z,96345.53
2023-02-02T02:49:58.260Z,96334.69
2023-02-02T02:52:24.982Z,96334.41
2023-02-02T02:54:54.831Z,96345.41
2023-02-02T02:57:27.675Z,96355.38
2023-02-02T03:00:18.219Z,96345.41
2023-02-02T03:02:54.012Z,96358.19
2023-02-02T03:05:36.296Z,96332.59
2023-02-02T03:08:12.817Z,96343.31
2023-02-02T03:10:42.774Z,96347.19
2023-02-02T03:13:11.830Z,96335.59
2023-02-02T03:15:42.951Z,96343.75
2023-02-02T03:18:10.207Z,96341.38
2023-02-02T03:20:36.857Z,96351.50
2023-02-02T03:23:03.658Z,96350.91
2023-02-02T03:25:30.325Z,96336.47
2023-02-02T03:27:58.569Z,96348.06
2023-02-02T03:30:25.560Z,96314.75
2023-02-02T03:32:53.066Z,96348.34
2023-02-02T03:35:22.959Z,96346.72
2023-02-02T03:37:49.851Z,96329.47
2023-02-02T03:40:16.697Z,96348.78
2023-02-02T03:42:43.365Z,96363.97
2023-02-02T03:45:10.870Z,96330.06
2023-02-02T03:47:37.571Z,96371.84
2023-02-02T03:50:05.662Z,96356.97
2023-02-02T03:52:32.354Z,96356.22
2023-02-02T03:54:58.982Z,96349.25
2023-02-02T03:57:25.696Z,96346.13
2023-02-02T03:59:52.345Z,96365.44
2023-02-02T04:02:19.241Z,96360.25
2023-02-02T04:04:45.871Z,96352.81
2023-02-02T04:07:16.056Z,96359.06
2023-02-02T04:09:42.791Z,96357.28
2023-02-02T04:12:09.476Z,96354.75
2023-02-02T04:14:36.159Z,96353.84
2023-02-02T04:17:02.835Z,96347.03
2023-02-02T04:19:29.539Z,96344.50
2023-02-02T04:21:56.168Z,96359.81
2023-02-02T04:24:22.922Z,96358.00
2023-02-02T04:26:49.864Z,96351.47
2023-02-02T04:29:16.531Z,96355.19
2023-02-02T04:31:43.337Z,96353.41
2023-02-02T04:34:10.104Z,96366.34
2023-02-02T04:36:36.788Z,96374.38
2023-02-02T04:39:03.695Z,96376.03
2023-02-02T04:41:30.405Z,96358.19
2023-02-02T04:43:57.086Z,96365.63
2023-02-02T04:46:23.769Z,96359.97
2023-02-02T04:48:50.459Z,96336.59
2023-02-02T04:51:18.790Z,96372.47
2023-02-02T04:53:45.905Z,96343.59
2023-02-02T04:56:17.701Z,96363.84
2023-02-02T04:58:45.610Z,96348.06
2023-02-02T05:01:16.421Z,96356.13
2023-02-02T05:03:43.214Z,96372.59
2023-02-02T05:06:10.121Z,96366.53
2023-02-02T05:08:37.298Z,96366.97
2023-02-02T05:11:12.627Z,96361.75
2023-02-02T05:13:39.839Z,96372.34
2023-02-02T05:16:07.272Z,96372.34
2023-02-02T05:18:33.901Z,96386.91
2023-02-02T05:21:01.790Z,96379.91
2023-02-02T05:23:29.839Z,96380.34
2023-02-02T05:25:57.312Z,96361.75
2023-02-02T05:28:25.089Z,96394.06
2023-02-02T05:30:52.751Z,96380.06
2023-02-02T05:33:19.894Z,96385.72
2023-02-02T05:35:48.278Z,96383.78
2023-02-02T05:38:16.037Z,96392.56
2023-02-02T05:40:42.966Z,96377.38
2023-02-02T05:43:09.672Z,96374.69
2023-02-02T05:45:36.427Z,96396.72
2023-02-02T05:48:03.128Z,96362.50
2023-02-02T05:50:29.780Z,96380.81
2023-02-02T05:53:06.441Z,96374.69
2023-02-02T05:55:33.171Z,96388.09
2023-02-02T05:57:59.900Z,96381.84
2023-02-02T06:00:26.645Z,96382.59
2023-02-02T06:02:53.407Z,96383.66
2023-02-02T06:05:20.185Z,96364.44
2023-02-02T06:07:46.889Z,96372.63
2023-02-02T06:10:13.805Z,96402.06
2023-02-02T06:12:40.489Z,96397.31
2023-02-02T06:15:07.832Z,96403.13
2023-02-02T06:17:34.531Z,96400.00
2023-02-02T06:20:01.181Z,96386.16
2023-02-02T06:22:27.944Z,96366.34
2023-02-02T06:24:54.635Z,96392.41
2023-02-02T06:27:21.521Z,96395.25
2023-02-02T06:29:48.364Z,96386.91
2023-02-02T06:32:15.437Z,96395.53
2023-02-02T06:34:42.156Z,96386.63
2023-02-02T06:37:08.843Z,96388.41
2023-02-02T06:39:35.582Z,96398.22
2023-02-02T06:42:19.209Z,96404.03
2023-02-02T06:44:47.782Z,96393.59
2023-02-02T06:47:14.506Z,96412.66
2023-02-02T06:49:41.159Z,96422.78
2023-02-02T06:52:08.030Z,96426.63
2023-02-02T06:54:34.679Z,96420.09
2023-02-02T06:57:01.498Z,96424.72
2023-02-02T06:59:28.164Z,96414.56
2023-02-02T07:01:54.985Z,96405.06
2023-02-02T07:04:21.902Z,96424.13
2023-02-02T07:06:48.728Z,96437.50
2023-02-02T07:09:15.426Z,96448.53
2023-02-02T07:11:45.452Z,96451.78
2023-02-02T07:14:12.872Z,96440.16
2023-02-02T07:16:39.521Z,96421.88
2023-02-02T07:19:06.246Z,96438.69
2023-02-02T07:21:36.407Z,96453.25
2023-02-02T07:24:05.483Z,96461.31
2023-02-02T07:26:34.592Z,96460.28
2023-02-02T07:29:01.805Z,96451.78
2023-02-02T07:31:29.464Z,96451.78
2023-02-02T07:33:56.776Z,96442.97
2023-02-02T07:36:24.680Z,96441.81
2023-02-02T07:38:57.812Z,96475.16
2023-02-02T07:41:25.027Z,96477.09
2023-02-02T07:43:52.207Z,96473.66
2023-02-02T07:46:19.923Z,96473.97
2023-02-02T07:48:47.400Z,96486.75
2023-02-02T07:51:18.340Z,96505.06
2023-02-02T07:53:46.937Z,96492.88
2023-02-02T07:56:16.500Z,96490.63
2023-02-02T07:58:44.194Z,96463.41
2023-02-02T08:01:12.986Z,96480.19
2023-02-02T08:03:40.230Z,96489.13
2023-02-02T08:06:18.187Z,96496.44
2023-02-02T08:08:45.234Z,96495.25
2023-02-02T08:11:13.616Z,96492.28
2023-02-02T08:13:41.695Z,96496.00
2023-02-02T08:16:08.790Z,96495.09
2023-02-02T08:18:36.079Z,96508.81
2023-02-02T08:21:04.199Z,96501.38
2023-02-02T08:23:31.473Z,96511.94
2023-02-02T08:26:16.985Z,96514.19
2023-02-02T08:28:45.745Z,96525.63
2023-02-02T08:31:16.074Z,96525.50
2023-02-02T08:33:43.622Z,96516.56
2023-02-02T08:36:14.746Z,96535.16
2023-02-02T08:38:41.703Z,96530.25
2023-02-02T08:41:11.359Z,96543.19
2023-02-02T08:43:38.578Z,96525.31
2023-02-02T08:46:06.131Z,96538.44
2023-02-02T08:48:34.878Z,96542.00
2023-02-02T08:51:02.383Z,96538.88
2023-02-02T08:53:29.746Z,96533.06
2023-02-02T08:56:00.106Z,96530.97
2023-02-02T08:58:28.020Z,96544.19
2023-02-02T09:00:54.858Z,96540.03
2023-02-02T09:03:21.549Z,96539.16
2023-02-02T09:05:48.559Z,96541.84
2023-02-02T09:08:15.274Z,96560.13
2023-02-02T09:10:41.973Z,96538.13
2023-02-02T09:13:08.599Z,96539.88
2023-02-02T09:15:35.375Z,96548.06
2023-02-02T09:18:02.068Z,96569.66
2023-02-02T09:20:28.986Z,96563.88
2023-02-02T09:22:57.397Z,96566.84
2023-02-02T09:25:27.580Z,96539.59
2023-02-02T09:27:54.528Z,96550.78
2023-02-02T09:30:21.324Z,96549.84
2023-02-02T09:32:51.132Z,96574.44
2023-02-02T09:35:17.878Z,96569.09
2023-02-02T09:37:45.521Z,96563.59
2023-02-02T09:40:19.544Z,96548.53
2023-02-02T09:42:58.544Z,96547.94
2023-02-02T09:45:55.314Z,96567.28
2023-02-02T09:48:33.985Z,96567.00
2023-02-02T09:51:09.393Z,96567.31
2023-02-02T09:53:55.866Z,96540.97
2023-02-02T09:56:31.793Z,96572.09
2023-02-02T09:59:13.783Z,96565.81
2023-02-02T10:01:47.960Z,96564.78
2023-02-02T10:04:18.859Z,96563.75
2023-02-02T10:06:51.493Z,96561.97
2023-02-02T10:09:33.934Z,96552.44
2023-02-02T10:12:31.397Z,96551.22
2023-02-02T10:15:17.838Z,96549.31
2023-02-02T10:17:47.961Z,96551.69
2023-02-02T10:20:30.778Z,96559.72
2023-02-02T10:23:05.987Z,96556.59
2023-02-02T10:25:35.363Z,96564.81
2023-02-02T10:28:20.512Z,96555.25
2023-02-02T10:30:55.736Z,96542.91
2023-02-02T10:34:02.626Z,96570.00
2023-02-02T10:36:56.399Z,96556.63
2023-02-02T10:39:49.691Z,96563.75
2023-02-02T10:42:28.576Z,96557.69
2023-02-02T10:44:58.858Z,96555.00
2023-02-02T10:47:32.299Z,96560.31
2023-02-02T10:50:20.334Z,96556.63
2023-02-02T10:52:53.384Z,96550.50
2023-02-02T10:55:28.604Z,96573.00
2023-02-02T10:58:13.395Z,96547.97
2023-02-02T11:01:01.309Z,96567.19
2023-02-02T11:03:31.420Z,96556.00
2023-02-02T11:06:22.449Z,96543.50
2023-02-02T11:08:57.127Z,96529.06
2023-02-02T11:11:33.028Z,96541.72
2023-02-02T11:14:16.122Z,96549.19
2023-02-02T11:16:45.675Z,96542.19
2023-02-02T11:19:18.124Z,96555.75
2023-02-02T11:21:51.519Z,96559.44
2023-02-02T11:24:23.252Z,96550.69
2023-02-02T11:26:58.198Z,96559.75
2023-02-02T11:29:31.396Z,96558.28
2023-02-02T11:31:58.745Z,96557.84
2023-02-02T11:34:27.926Z,96560.97
2023-02-02T11:37:01.275Z,96563.78
2023-02-02T11:39:28.462Z,96561.69
2023-02-02T11:42:05.210Z,96564.38
2023-02-02T11:44:32.816Z,96561.53
2023-02-02T11:47:01.451Z,96555.72
2023-02-02T11:49:28.626Z,96543.81
2023-02-02T11:52:04.718Z,96551.56
2023-02-02T11:54:34.579Z,96536.97
2023-02-02T11:57:05.160Z,96548.00
2023-02-02T11:59:40.255Z,96537.88
2023-02-02T12:02:30.835Z,96545.47
2023-02-02T12:05:23.702Z,96549.34
2023-02-02T12:07:50.865Z,96561.41
2023-02-02T12:10:17.784Z,96564.50
2023-02-02T12:13:09.983Z,96560.81
2023-02-02T12:15:59.817Z,96556.03
2023-02-02T12:19:00.501Z,96553.81
2023-02-02T12:21:33.092Z,96545.75
2023-02-02T12:24:00.215Z,96560.03
2023-02-02T12:26:38.745Z,96564.97
2023-02-02T12:29:20.881Z,96562.72
2023-02-02T12:31:53.876Z,96557.97
2023-02-02T12:34:23.965Z,96550.09
2023-02-02T12:37:18.938Z,96558.72
2023-02-02T12:40:04.214Z,96561.84
2023-02-02T12:42:41.615Z,96557.53
2023-02-02T12:45:20.523Z,96566.75
2023-02-02T12:48:15.297Z,96552.31
2023-02-02T12:50:45.002Z,96558.84
2023-02-02T12:53:20.894Z,96560.91
2023-02-02T12:55:58.357Z,96572.22
2023-02-02T12:58:33.012Z,96561.97
2023-02-02T13:01:21.338Z,96564.06
2023-02-02T13:04:18.859Z,96565.53
2023-02-02T13:07:03.881Z,96566.72
2023-02-02T13:09:38.043Z,96581.91
2023-02-02T13:12:10.307Z,96580.25
2023-02-02T13:14:51.790Z,96585.59
2023-02-02T13:17:26.475Z,96589.91
2023-02-02T13:20:03.417Z,96582.03
2023-02-02T13:22:38.315Z,96592.72
2023-02-02T13:25:15.442Z,96602.44
2023-02-02T13:27:43.812Z,96588.16
2023-02-02T13:30:20.501Z,96609.28
2023-02-02T13:32:51.022Z,96612.25
2023-02-02T13:35:22.392Z,96610.19
2023-02-02T13:37:55.719Z,96614.50
2023-02-02T13:40:40.842Z,96625.22
2023-02-02T13:43:45.362Z,96626.28
2023-02-02T13:46:31.403Z,96626.41
2023-02-02T13:49:10.892Z,96630.72
2023-02-02T13:52:28.852Z,96615.25
2023-02-02T13:55:28.481Z,96624.03
2023-02-02T13:58:01.596Z,96619.69
2023-02-02T14:00:37.147Z,96634.44
2023-02-02T14:03:29.855Z,96629.22
2023-02-02T14:06:06.456Z,96642.03
2023-02-02T14:08:33.841Z,96632.22
2023-02-02T14:11:03.890Z,96625.78
2023-02-02T14:14:16.838Z,96631.16
2023-02-02T14:16:47.331Z,96635.91
2023-02-02T14:19:33.236Z,96644.09
2023-02-02T14:22:05.172Z,96642.16
2023-02-02T14:24:37.757Z,96649.47
2023-02-02T14:27:44.562Z,96652.41
2023-02-02T14:30:21.740Z,96652.09
2023-02-02T14:32:48.463Z,96652.41
2023-02-02T14:35:15.215Z,96662.56
2023-02-02T14:37:47.349Z,96665.53
2023-02-02T14:40:16.746Z,96670.28
2023-02-02T14:43:29.770Z,96664.78
2023-02-02T14:46:14.677Z,96671.34
2023-02-02T14:48:46.053Z,96676.69
2023-02-02T14:51:20.096Z,96664.75
2023-02-02T14:53:50.939Z,96670.50
2023-02-02T14:56:19.305Z,96663.06
2023-02-02T14:58:48.860Z,96668.28
2023-02-02T15:01:21.754Z,96662.03
2023-02-02T15:03:57.431Z,96662.63
2023-02-02T15:06:42.191Z,96667.53
2023-02-02T15:09:20.938Z,96661.31
2023-02-02T15:12:01.630Z,96671.44
2023-02-02T15:14:31.464Z,96659.81
2023-02-02T15:17:24.521Z,96666.50
2023-02-02T15:20:06.372Z,96666.03
2023-02-02T15:22:41.527Z,96679.16
2023-02-02T15:25:23.141Z,96678.59
2023-02-02T15:28:17.785Z,96680.63
2023-02-02T15:30:48.446Z,96686.84
2023-02-02T15:33:29.954Z,96697.13
2023-02-02T15:36:00.606Z,96696.25
2023-02-02T15:38:34.802Z,96697.75
2023-02-02T15:41:33.036Z,96697.13
2023-02-02T15:44:01.185Z,96716.66
2023-02-02T15:46:35.933Z,96685.94
2023-02-02T15:49:33.724Z,96719.91
2023-02-02T15:52:14.453Z,96712.19
2023-02-02T15:54:51.174Z,96728.13
2023-02-02T15:57:26.235Z,96733.97
2023-02-02T15:59:53.012Z,96722.81
2023-02-02T16:02:40.248Z,96725.16
2023-02-02T16:05:39.504Z,96726.16
2023-02-02T16:08:13.597Z,96714.63
2023-02-02T16:10:40.416Z,96721.16
2023-02-02T16:13:07.257Z,96731.28
2023-02-02T16:15:33.927Z,96755.28
2023-02-02T16:18:15.365Z,96743.53
2023-02-02T16:20:43.151Z,96743.72
2023-02-02T16:23:16.266Z,96741.47
2023-02-02T16:25:49.859Z,96751.78
2023-02-02T16:28:22.050Z,96765.31
2023-02-02T16:30:51.799Z,96761.91
2023-02-02T16:33:28.913Z,96784.63
2023-02-02T16:35:56.371Z,96786.56
2023-02-02T16:38:30.145Z,96791.38
2023-02-02T16:41:09.706Z,96781.53
2023-02-02T16:43:38.511Z,96775.88
2023-02-02T16:46:07.494Z,96791.03
2023-02-02T16:48:37.019Z,96795.69
2023-02-02T16:51:21.124Z,96798.34
2023-02-02T16:53:56.699Z,96818.03
2023-02-02T16:56:34.632Z,96802.41
2023-02-02T16:59:07.443Z,96818.19
2023-02-02T17:01:49.122Z,96817.63
2023-02-02T17:04:26.522Z,96825.50
2023-02-02T17:06:54.999Z,96816.59
2023-02-02T17:09:34.756Z,96826.66
2023-02-02T17:12:32.080Z,96824.00
2023-02-02T17:15:05.704Z,96839.56
2023-02-02T17:17:32.401Z,96832.47
2023-02-02T17:19:59.080Z,96843.53
2023-02-02T17:22:27.909Z,96843.31
2023-02-02T17:24:54.936Z,96845.94
2023-02-02T17:27:27.950Z,96846.53
2023-02-02T17:29:55.581Z,96846.53
2023-02-02T17:32:23.711Z,96863.84
2023-02-02T17:34:50.569Z,96856.09
2023-02-02T17:37:17.271Z,96866.50
2023-02-02T17:39:44.029Z,96858.94
2023-02-02T17:42:24.425Z,96857.69
2023-02-02T17:44:51.138Z,96854.53
2023-02-02T17:47:17.875Z,96860.53
2023-02-02T17:49:44.599Z,96865.75
2023-02-02T17:52:12.758Z,96871.59
2023-02-02T17:54:39.480Z,96869.31
2023-02-02T17:57:06.136Z,96874.81
2023-02-02T17:59:32.819Z,96872.31
2023-02-02T18:01:59.625Z,96883.06
2023-02-02T18:04:27.013Z,96901.53
2023-02-02T18:06:53.651Z,96884.41
2023-02-02T18:09:20.365Z,96872.16
2023-02-02T18:11:49.816Z,96896.19
2023-02-02T18:14:16.588Z,96884.97
2023-02-02T18:16:43.359Z,96907.50
2023-02-02T18:19:10.459Z,96911.41
2023-02-02T18:21:37.592Z,96912.16
2023-02-02T18:24:04.519Z,96916.31
2023-02-02T18:26:32.701Z,96915.88
2023-02-02T18:28:59.565Z,96925.88
2023-02-02T18:31:27.135Z,96923.03
2023-02-02T18:33:54.535Z,96926.31
2023-02-02T18:36:23.659Z,96926.63
2023-02-02T18:38:53.724Z,96931.97
2023-02-02T18:41:23.831Z,96940.00
2023-02-02T18:43:54.144Z,96935.13
2023-02-02T18:46:21.023Z,96941.50
2023-02-02T18:48:47.823Z,96945.19
2023-02-02T18:51:18.125Z,96952.00
2023-02-02T18:53:46.231Z,96945.78
2023-02-02T18:56:14.698Z,96958.34
2023-02-02T18:58:41.633Z,96949.09
2023-02-02T19:01:13.619Z,96950.59
2023-02-02T19:03:41.037Z,96948.84
2023-02-02T19:06:27.977Z,96942.03
2023-02-02T19:08:55.457Z,96957.78
2023-02-02T19:11:24.697Z,96948.69
2023-02-02T19:13:51.424Z,96944.53
2023-02-02T19:16:30.080Z,96978.47
2023-02-02T19:19:00.626Z,96924.16
2023-02-02T19:21:30.828Z,96959.91
2023-02-02T19:23:59.515Z,97003.81
2023-02-02T19:26:28.226Z,96963.56
2023-02-02T19:29:02.915Z,96986.28
2023-02-02T19:31:29.833Z,96961.97
2023-02-02T19:33:57.748Z,96954.69
2023-02-02T19:36:30.889Z,96955.59
2023-02-02T19:39:11.556Z,96979.03
2023-02-02T19:41:47.937Z,97004.09
2023-02-02T19:44:18.852Z,96983.19
2023-02-02T19:46:49.757Z,96985.84
2023-02-02T19:49:34.543Z,96947.84
2023-02-02T19:52:03.976Z,96990.44
2023-02-02T19:54:33.400Z,96988.13
2023-02-02T19:57:10.192Z,96987.03
2023-02-02T19:59:36.967Z,96960.47
2023-02-02T20:02:41.986Z,97024.44
2023-02-02T20:05:11.953Z,97008.09
2023-02-02T20:07:39.332Z,96984.25
2023-02-02T20:10:18.952Z,97014.16
2023-02-02T20:12:45.864Z,97007.06
2023-02-02T20:15:34.764Z,97024.06
2023-02-02T20:18:11.641Z,97026.78
2023-02-02T20:20:41.266Z,97014.72
2023-02-02T20:23:26.989Z,97017.47
2023-02-02T20:25:53.734Z,97025.28
2023-02-02T20:28:33.004Z,97032.53
2023-02-02T20:31:03.155Z,97035.94
2023-02-02T20:33:31.068Z,97020.56
2023-02-02T20:35:57.935Z,96993.28
2023-02-02T20:38:32.047Z,96993.91
2023-02-02T20:40:59.331Z,97005.63
2023-02-02T20:43:26.112Z,97009.91
2023-02-02T20:45:52.933Z,97010.78
2023-02-02T20:48:20.086Z,97054.22
2023-02-02T20:50:47.062Z,97000.66
2023-02-02T20:53:16.686Z,97042.91
2023-02-02T20:55:44.723Z,97028.44
2023-02-02T20:58:11.862Z,97002.38
2023-02-02T21:00:39.211Z,97039.53
2023-02-02T21:03:06.139Z,96997.88
2023-02-02T21:05:32.916Z,96999.53
2023-02-02T21:07:59.735Z,97034.75
2023-02-02T21:10:27.081Z,97055.72
2023-02-02T21:12:54.063Z,97054.16
2023-02-02T21:15:21.025Z,97055.56
2023-02-02T21:17:47.910Z,97038.44
2023-02-02T21:20:15.063Z,97028.97
2023-02-02T21:22:42.194Z,97063.38
2023-02-02T21:25:09.782Z,97031.31
2023-02-02T21:27:37.779Z,97042.41
2023-02-02T21:30:05.262Z,97064.81
2023-02-02T21:32:33.813Z,97037.63
2023-02-02T21:35:00.793Z,97042.56
2023-02-02T21:37:28.167Z,97008.44
2023-02-02T21:39:59.760Z,97052.47
2023-02-02T21:42:27.406Z,97005.66
2023-02-02T21:44:57.178Z,97045.72
2023-02-02T21:47:26.888Z,97069.19
2023-02-02T21:49:56.080Z,97067.69
2023-02-02T21:52:22.895Z,97047.69
2023-02-02T21:54:50.959Z,97028.25
2023-02-02T21:57:28.244Z,97019.47
2023-02-02T21:59:56.615Z,97038.19
2023-02-02T22:02:35.495Z,97057.88
2023-02-02T22:05:11.071Z,97068.47
2023-02-02T22:07:37.804Z,97065.13
2023-02-02T22:10:25.064Z,97043.81
2023-02-02T22:12:51.960Z,97033.56
2023-02-02T22:15:21.924Z,97019.66
2023-02-02T22:17:49.309Z,97071.63
2023-02-02T22:20:16.017Z,97060.31
2023-02-02T22:22:48.988Z,97046.47
2023-02-02T22:25:20.164Z,97067.63
2023-02-02T22:27:50.375Z,97066.88
2023-02-02T22:30:33.048Z,97054.88
2023-02-02T22:32:59.837Z,97045.06
2023-02-02T22:35:26.558Z,97075.81
2023-02-02T22:37:53.649Z,97029.59
2023-02-02T22:40:24.279Z,97051.66
2023-02-02T22:42:52.807Z,97074.03
2023-02-02T22:45:20.030Z,97054.50
2023-02-02T22:47:47.853Z,97063.88
2023-02-02T22:50:22.023Z,97083.13
2023-02-02T22:52:49.199Z,97080.66
2023-02-02T22:55:16.204Z,97054.88
2023-02-02T22:57:43.264Z,97055.81
2023-02-02T23:00:14.012Z,97115.41
2023-02-02T23:02:42.072Z,97097.75
2023-02-02T23:05:12.256Z,97100.53
2023-02-02T23:07:39.873Z,97094.44
2023-02-02T23:10:08.094Z,97061.19
2023-02-02T23:12:34.981Z,97070.69
2023-02-02T23:15:02.104Z,97121.06
2023-02-02T23:17:29.092Z,97100.88
2023-02-02T23:19:55.842Z,97139.47
2023-02-02T23:22:22.601Z,97078.72
2023-02-02T23:24:49.395Z,97093.63
2023-02-02T23:27:16.040Z,97121.53
2023-02-02T23:29:42.793Z,97040.28
2023-02-02T23:32:09.526Z,97105.94
2023-02-02T23:34:36.206Z,97089.44
2023-02-02T23:37:02.883Z,97104.75
2023-02-02T23:39:29.609Z,97047.38
2023-02-02T23:41:56.287Z,97075.47
2023-02-02T23:44:22.988Z,97037.75
2023-02-02T23:46:51.186Z,97098.44
2023-02-02T23:49:18.325Z,97071.31
2023-02-02T23:51:45.222Z,97054.16
2023-02-02T23:54:13.620Z,97071.06
2023-02-02T23:56:41.910Z,97050.41
2023-02-02T23:59:09.429Z,97071.81
